Time;durP1;ratioP1;P1;durP2;ratioP2;P2;SDS_P1;SDS_P2;PMS_P1;PMS_P2;Temp;Humidity;BMP_temperature;BMP_pressure;BME280_temperature;BME280_humidity;BME280_pressure;Samples;Min_cycle;Max_cycle;Signal;HPM_P1;HPM_P2
2021/10/10 00:01:15;;;;;;;11.68;11.18;;;;;;;;;;4990796;28;20042;-46
2021/10/10 00:03:42;;;;;;;10.75;10.30;;;;;;;;;;4989959;28;20038;-44
2021/10/10 00:06:08;;;;;;;9.27;8.90;;;;;;;;;;4973334;28;20478;-44
2021/10/10 00:08:35;;;;;;;9.60;9.25;;;;;;;;;;4985645;28;20125;-44
2021/10/10 00:11:02;;;;;;;8.20;7.90;;;;;;;;;;4976248;28;20038;-45
2021/10/10 00:13:29;;;;;;;8.95;8.18;;;;;;;;;;4990317;28;20150;-46
2021/10/10 00:15:56;;;;;;;8.02;7.80;;;;;;;;;;4983102;28;20042;-45
2021/10/10 00:18:22;;;;;;;9.18;8.93;;;;;;;;;;4984044;28;20447;-45
2021/10/10 00:20:49;;;;;;;8.40;8.20;;;;;;;;;;4988189;28;20141;-48
2021/10/10 00:23:15;;;;;;;7.15;6.95;;;;;;;;;;4988354;28;20074;-47
2021/10/10 00:25:42;;;;;;;8.55;8.38;;;;;;;;;;4978654;28;20047;-44
2021/10/10 00:28:09;;;;;;;9.25;8.73;;;;;;;;;;4985657;28;20442;-48
2021/10/10 00:30:35;;;;;;;10.63;9.82;;;;;;;;;;4989058;28;20058;-49
2021/10/10 00:33:02;;;;;;;8.60;8.40;;;;;;;;;;4988918;28;20085;-45
2021/10/10 00:35:30;;;;;;;9.77;9.57;;;;;;;;;;4989020;28;20046;-46
2021/10/10 00:37:57;;;;;;;9.80;9.05;;;;;;;;;;4990184;28;20042;-46
2021/10/10 00:40:23;;;;;;;10.93;10.52;;;;;;;;;;4989318;28;20054;-44
2021/10/10 00:42:50;;;;;;;11.90;11.32;;;;;;;;;;4987865;28;20101;-47
2021/10/10 00:45:16;;;;;;;10.63;10.35;;;;;;;;;;4982252;28;20113;-46
2021/10/10 00:47:43;;;;;;;7.85;7.57;;;;;;;;;;4979959;28;20046;-45
2021/10/10 00:50:10;;;;;;;8.63;8.32;;;;;;;;;;4977648;28;20071;-45
2021/10/10 00:52:42;;;;;;;8.75;8.52;;;;;;;;;;4985617;28;20498;-46
2021/10/10 00:55:10;;;;;;;11.60;11.32;;;;;;;;;;5021525;28;20046;-45
2021/10/10 00:57:40;;;;;;;10.38;10.07;;;;;;;;;;4988896;28;20042;-45
2021/10/10 01:00:08;;;;;;;7.78;7.45;;;;;;;;;;4984756;28;20101;-44
2021/10/10 01:02:36;;;;;;;6.70;6.50;;;;;;;;;;4973329;28;20070;-44
2021/10/10 01:05:04;;;;;;;8.90;8.70;;;;;;;;;;4987112;28;20034;-47
2021/10/10 01:07:31;;;;;;;12.07;11.77;;;;;;;;;;4988467;28;20042;-45
2021/10/10 01:09:59;;;;;;;13.27;12.77;;;;;;;;;;4979727;28;20074;-44
2021/10/10 01:12:26;;;;;;;11.25;11.05;;;;;;;;;;4984723;28;20089;-47
2021/10/10 01:14:53;;;;;;;13.90;13.65;;;;;;;;;;4983438;28;20046;-46
2021/10/10 01:17:22;;;;;;;15.55;14.65;;;;;;;;;;4993353;28;20042;-44
2021/10/10 01:19:49;;;;;;;14.80;14.18;;;;;;;;;;4986434;28;20038;-47
2021/10/10 01:22:16;;;;;;;15.40;14.55;;;;;;;;;;4990941;28;20042;-46
2021/10/10 01:24:43;;;;;;;16.02;15.45;;;;;;;;;;4990847;28;20382;-44
2021/10/10 01:27:10;;;;;;;14.75;14.32;;;;;;;;;;5002953;28;20128;-46
2021/10/10 01:29:36;;;;;;;13.77;13.43;;;;;;;;;;4993091;28;20096;-44
2021/10/10 01:32:03;;;;;;;14.65;13.90;;;;;;;;;;4994245;28;20057;-44
2021/10/10 01:34:30;;;;;;;14.57;13.88;;;;;;;;;;4993647;28;20062;-45
2021/10/10 01:36:57;;;;;;;16.13;15.52;;;;;;;;;;4992555;28;20082;-46
2021/10/10 01:39:24;;;;;;;19.88;18.17;;;;;;;;;;4993287;28;20125;-44
2021/10/10 01:41:51;;;;;;;15.38;14.73;;;;;;;;;;4988995;28;20046;-46
2021/10/10 01:44:17;;;;;;;13.35;12.88;;;;;;;;;;4992061;28;20467;-45
2021/10/10 01:46:44;;;;;;;12.52;12.13;;;;;;;;;;4993410;28;20082;-43
2021/10/10 01:49:11;;;;;;;10.93;10.30;;;;;;;;;;4990961;28;20068;-44
2021/10/10 01:51:40;;;;;;;11.95;11.45;;;;;;;;;;4991541;28;20105;-45
2021/10/10 01:54:07;;;;;;;12.10;11.82;;;;;;;;;;4991290;28;20062;-44
2021/10/10 01:56:34;;;;;;;14.30;13.70;;;;;;;;;;4992187;28;20383;-46
2021/10/10 01:59:00;;;;;;;11.48;11.18;;;;;;;;;;4992028;28;20038;-46
2021/10/10 02:01:28;;;;;;;12.93;12.32;;;;;;;;;;4992922;28;20462;-45
2021/10/10 02:03:55;;;;;;;13.60;13.23;;;;;;;;;;4992575;28;20510;-45
2021/10/10 02:06:22;;;;;;;14.60;14.00;;;;;;;;;;4988057;28;20129;-44
2021/10/10 02:08:48;;;;;;;14.93;14.23;;;;;;;;;;4990502;28;20097;-45
2021/10/10 02:11:15;;;;;;;15.40;14.73;;;;;;;;;;4989066;28;20474;-45
2021/10/10 02:13:42;;;;;;;14.13;13.63;;;;;;;;;;4990728;28;20089;-46
2021/10/10 02:16:10;;;;;;;13.70;13.40;;;;;;;;;;4989136;28;20515;-45
2021/10/10 02:18:37;;;;;;;13.52;12.75;;;;;;;;;;4991403;28;20042;-44
2021/10/10 02:21:04;;;;;;;12.73;11.35;;;;;;;;;;4990107;28;20077;-43
2021/10/10 02:23:31;;;;;;;13.63;13.02;;;;;;;;;;4991022;28;20487;-46
2021/10/10 02:25:57;;;;;;;13.82;13.43;;;;;;;;;;4991485;28;20130;-45
2021/10/10 02:28:24;;;;;;;14.23;13.75;;;;;;;;;;4992072;28;20458;-47
2021/10/10 02:30:52;;;;;;;18.23;17.45;;;;;;;;;;4979038;28;20043;-45
2021/10/10 02:33:19;;;;;;;16.65;16.02;;;;;;;;;;4988752;28;20062;-46
2021/10/10 02:35:45;;;;;;;15.63;15.13;;;;;;;;;;4987123;28;20039;-47
2021/10/10 02:38:12;;;;;;;15.88;15.13;;;;;;;;;;4991116;28;20393;-45
2021/10/10 02:40:39;;;;;;;16.02;14.88;;;;;;;;;;4991085;28;22052;-44
2021/10/10 02:43:05;;;;;;;15.20;14.70;;;;;;;;;;4991228;28;20074;-44
2021/10/10 02:45:33;;;;;;;18.33;17.45;;;;;;;;;;4989949;28;20402;-45
2021/10/10 02:48:00;;;;;;;17.33;16.20;;;;;;;;;;4988302;28;20047;-45
2021/10/10 02:50:26;;;;;;;16.77;15.95;;;;;;;;;;4983256;28;20066;-47
2021/10/10 02:52:55;;;;;;;15.75;15.02;;;;;;;;;;4981354;28;20042;-45
2021/10/10 02:55:22;;;;;;;15.85;14.95;;;;;;;;;;4991842;28;20053;-48
2021/10/10 02:57:49;;;;;;;16.17;15.50;;;;;;;;;;4986914;28;20059;-44
2021/10/10 03:00:16;;;;;;;14.07;13.68;;;;;;;;;;4987446;28;20030;-47
2021/10/10 03:02:42;;;;;;;16.52;15.52;;;;;;;;;;4992673;28;20113;-44
2021/10/10 03:05:09;;;;;;;16.02;14.65;;;;;;;;;;4984675;28;20050;-47
2021/10/10 03:07:38;;;;;;;15.90;15.10;;;;;;;;;;4991855;28;20537;-47
2021/10/10 03:10:05;;;;;;;16.02;15.63;;;;;;;;;;4988608;28;20405;-43
2021/10/10 03:12:32;;;;;;;15.05;14.23;;;;;;;;;;4989745;28;20073;-46
2021/10/10 03:14:59;;;;;;;16.90;16.00;;;;;;;;;;4992568;28;20104;-45
2021/10/10 03:17:26;;;;;;;14.75;14.18;;;;;;;;;;4988513;28;20042;-47
2021/10/10 03:19:53;;;;;;;15.15;14.73;;;;;;;;;;4988033;28;20054;-44
2021/10/10 03:22:19;;;;;;;16.58;16.02;;;;;;;;;;4986714;28;20070;-47
2021/10/10 03:24:46;;;;;;;16.38;15.48;;;;;;;;;;4985843;28;20042;-47
2021/10/10 03:27:13;;;;;;;15.38;14.68;;;;;;;;;;4980022;28;20166;-48
2021/10/10 03:29:39;;;;;;;17.80;16.88;;;;;;;;;;4988355;28;20446;-45
2021/10/10 03:32:06;;;;;;;14.18;13.32;;;;;;;;;;4978178;28;20035;-48
2021/10/10 03:34:33;;;;;;;15.75;14.98;;;;;;;;;;4989972;28;20034;-45
2021/10/10 03:37:00;;;;;;;14.13;13.88;;;;;;;;;;4984524;28;20125;-46
2021/10/10 03:39:26;;;;;;;15.88;15.30;;;;;;;;;;4991182;28;20073;-45
2021/10/10 03:41:53;;;;;;;15.40;14.98;;;;;;;;;;4988044;28;20054;-48
2021/10/10 03:44:20;;;;;;;15.80;15.35;;;;;;;;;;4990226;28;20046;-46
2021/10/10 03:46:46;;;;;;;16.67;16.02;;;;;;;;;;4990829;28;20446;-48
2021/10/10 03:49:14;;;;;;;15.48;14.68;;;;;;;;;;4985762;28;20057;-46
2021/10/10 03:51:41;;;;;;;16.20;15.60;;;;;;;;;;4991287;28;20074;-48
2021/10/10 03:56:51;;;;;;;17.40;16.45;;;;;;;;;;4990541;28;20528;-45
2021/10/10 03:59:21;;;;;;;17.00;15.80;;;;;;;;;;4990225;28;20121;-44
2021/10/10 04:01:47;;;;;;;16.67;16.00;;;;;;;;;;4988107;28;20058;-44
2021/10/10 04:04:14;;;;;;;15.48;15.02;;;;;;;;;;4980347;28;20137;-45
2021/10/10 04:06:41;;;;;;;17.27;16.55;;;;;;;;;;4987807;28;20039;-45
2021/10/10 04:09:08;;;;;;;15.48;14.65;;;;;;;;;;4990455;28;20042;-46
2021/10/10 04:11:35;;;;;;;15.38;14.35;;;;;;;;;;4989801;28;20070;-46
2021/10/10 04:14:01;;;;;;;14.65;14.00;;;;;;;;;;4989429;28;20042;-45
2021/10/10 04:16:28;;;;;;;15.02;14.32;;;;;;;;;;4988295;28;20046;-44
2021/10/10 04:18:55;;;;;;;14.13;13.38;;;;;;;;;;4989093;28;20387;-48
2021/10/10 04:21:22;;;;;;;11.98;11.32;;;;;;;;;;4989154;28;20073;-45
2021/10/10 04:23:48;;;;;;;11.65;11.00;;;;;;;;;;4976377;28;20046;-46
2021/10/10 04:26:15;;;;;;;15.93;11.95;;;;;;;;;;4983567;28;20042;-44
2021/10/10 04:28:42;;;;;;;10.10;9.68;;;;;;;;;;4990106;28;20113;-47
2021/10/10 04:31:09;;;;;;;13.20;12.88;;;;;;;;;;4982645;28;20075;-45
2021/10/10 04:33:36;;;;;;;13.98;13.20;;;;;;;;;;4981334;28;20521;-47
2021/10/10 04:36:03;;;;;;;14.48;13.85;;;;;;;;;;4990614;28;20511;-47
2021/10/10 04:38:30;;;;;;;13.75;13.07;;;;;;;;;;4987714;28;20038;-46
2021/10/10 04:40:56;;;;;;;11.57;11.13;;;;;;;;;;4981070;28;20081;-49
2021/10/10 04:43:23;;;;;;;13.52;12.93;;;;;;;;;;4982280;28;20065;-45
2021/10/10 04:45:50;;;;;;;15.55;14.93;;;;;;;;;;4989136;28;20034;-47
2021/10/10 04:48:16;;;;;;;14.00;13.40;;;;;;;;;;4988563;28;20050;-44
2021/10/10 04:50:43;;;;;;;14.73;14.02;;;;;;;;;;4988739;28;20324;-44
2021/10/10 04:53:10;;;;;;;14.50;13.55;;;;;;;;;;4987303;28;20557;-45
2021/10/10 04:55:36;;;;;;;13.73;13.23;;;;;;;;;;4990874;28;20038;-48
2021/10/10 04:58:03;;;;;;;14.00;13.13;;;;;;;;;;4987243;28;20058;-44
2021/10/10 05:00:30;;;;;;;15.07;14.55;;;;;;;;;;4990120;28;20515;-49
2021/10/10 05:03:01;;;;;;;15.80;15.02;;;;;;;;;;4989452;28;20130;-44
2021/10/10 05:05:29;;;;;;;15.60;15.02;;;;;;;;;;4989244;28;20031;-45
2021/10/10 05:07:55;;;;;;;18.23;17.10;;;;;;;;;;4983146;28;20113;-44
2021/10/10 05:10:22;;;;;;;15.07;14.48;;;;;;;;;;4982374;28;20097;-45
2021/10/10 05:12:49;;;;;;;16.95;16.45;;;;;;;;;;4989637;28;20121;-45
2021/10/10 05:15:15;;;;;;;18.92;17.67;;;;;;;;;;4988498;28;20035;-44
2021/10/10 05:17:42;;;;;;;16.55;16.15;;;;;;;;;;4987447;28;20510;-43
2021/10/10 05:20:09;;;;;;;16.02;15.18;;;;;;;;;;4986966;28;20035;-48
2021/10/10 05:22:36;;;;;;;15.25;14.15;;;;;;;;;;4983441;28;20473;-45
2021/10/10 05:25:02;;;;;;;14.57;13.95;;;;;;;;;;4983959;28;20050;-44
2021/10/10 05:27:29;;;;;;;9.02;8.65;;;;;;;;;;4985963;28;20061;-46
2021/10/10 05:29:56;;;;;;;13.05;12.75;;;;;;;;;;4989280;28;20145;-45
2021/10/10 05:32:23;;;;;;;11.48;11.18;;;;;;;;;;4989009;28;20101;-45
2021/10/10 05:34:49;;;;;;;12.25;11.68;;;;;;;;;;4988648;28;20038;-45
2021/10/10 05:37:16;;;;;;;9.95;9.57;;;;;;;;;;4989538;28;20419;-49
2021/10/10 05:39:43;;;;;;;12.50;12.30;;;;;;;;;;4983688;28;20031;-46
2021/10/10 05:42:10;;;;;;;15.88;15.25;;;;;;;;;;4989039;28;20082;-45
2021/10/10 05:44:36;;;;;;;14.88;14.60;;;;;;;;;;4989785;28;20097;-45
2021/10/10 05:47:03;;;;;;;13.95;13.65;;;;;;;;;;4987238;28;20105;-45
2021/10/10 05:49:30;;;;;;;13.73;13.23;;;;;;;;;;4988596;28;20046;-44
2021/10/10 05:51:58;;;;;;;14.95;14.30;;;;;;;;;;4980275;28;20548;-46
2021/10/10 05:54:27;;;;;;;15.05;14.75;;;;;;;;;;4979932;28;20483;-46
2021/10/10 05:56:55;;;;;;;14.90;14.63;;;;;;;;;;4988621;28;20077;-44
2021/10/10 05:59:22;;;;;;;8.00;7.50;;;;;;;;;;4990050;28;20050;-44
2021/10/10 06:01:49;;;;;;;14.48;13.85;;;;;;;;;;4992968;28;20088;-46
2021/10/10 06:04:16;;;;;;;14.90;14.50;;;;;;;;;;4984726;28;20051;-44
2021/10/10 06:06:43;;;;;;;12.68;12.25;;;;;;;;;;4982358;28;20454;-46
2021/10/10 06:09:10;;;;;;;12.45;12.10;;;;;;;;;;4977115;28;20050;-46
2021/10/10 06:11:36;;;;;;;14.95;14.23;;;;;;;;;;4986383;28;20081;-47
2021/10/10 06:14:03;;;;;;;14.95;14.55;;;;;;;;;;4977334;28;20054;-47
2021/10/10 06:16:30;;;;;;;16.23;15.93;;;;;;;;;;4992741;28;20603;-44
2021/10/10 06:18:59;;;;;;;15.75;15.32;;;;;;;;;;4990595;28;20038;-46
2021/10/10 06:21:25;;;;;;;11.98;10.95;;;;;;;;;;4983409;28;20135;-46
2021/10/10 06:23:53;;;;;;;16.35;15.90;;;;;;;;;;4986314;28;20074;-44
2021/10/10 06:26:22;;;;;;;16.48;15.63;;;;;;;;;;4978939;28;20089;-46
2021/10/10 06:28:49;;;;;;;12.98;12.48;;;;;;;;;;4990463;28;20065;-45
2021/10/10 06:31:16;;;;;;;15.70;15.27;;;;;;;;;;4991599;28;20089;-45
2021/10/10 06:33:43;;;;;;;16.08;15.30;;;;;;;;;;4991059;28;20046;-47
2021/10/10 06:36:09;;;;;;;13.15;12.82;;;;;;;;;;4993086;28;20573;-44
2021/10/10 06:38:36;;;;;;;12.93;12.52;;;;;;;;;;4980425;28;20477;-46
2021/10/10 06:41:03;;;;;;;13.85;13.35;;;;;;;;;;4979619;28;20051;-46
2021/10/10 06:43:30;;;;;;;18.25;17.40;;;;;;;;;;4984282;28;20046;-44
2021/10/10 06:45:57;;;;;;;15.25;14.80;;;;;;;;;;4975734;28;20054;-46
2021/10/10 06:48:24;;;;;;;15.90;15.23;;;;;;;;;;4991205;28;20546;-46
2021/10/10 06:50:51;;;;;;;13.98;13.30;;;;;;;;;;4991595;28;20065;-46
2021/10/10 06:53:17;;;;;;;16.00;15.25;;;;;;;;;;4983417;28;20034;-45
2021/10/10 06:55:44;;;;;;;18.42;17.05;;;;;;;;;;4986751;28;20101;-44
2021/10/10 06:58:11;;;;;;;16.85;16.02;;;;;;;;;;4989985;28;20038;-46
2021/10/10 07:00:38;;;;;;;14.85;14.30;;;;;;;;;;4989768;28;20046;-48
2021/10/10 07:03:05;;;;;;;15.57;14.82;;;;;;;;;;4981871;28;20053;-47
2021/10/10 07:05:31;;;;;;;16.63;15.90;;;;;;;;;;4989608;28;20050;-43
2021/10/10 07:07:58;;;;;;;17.60;16.77;;;;;;;;;;4990309;28;20125;-46
2021/10/10 07:10:25;;;;;;;16.55;16.00;;;;;;;;;;4990779;28;20046;-45
2021/10/10 07:12:51;;;;;;;14.52;14.00;;;;;;;;;;4985631;28;20062;-45
2021/10/10 07:15:18;;;;;;;12.48;11.57;;;;;;;;;;4992620;28;20042;-45
2021/10/10 07:17:45;;;;;;;12.45;11.82;;;;;;;;;;4989069;28;20479;-44
2021/10/10 07:20:23;;;;;;;15.10;14.40;;;;;;;;;;4989764;28;20057;-44
2021/10/10 07:25:35;;;;;;;13.70;13.30;;;;;;;;;;4990510;28;20566;-47
2021/10/10 07:28:01;;;;;;;14.63;13.80;;;;;;;;;;4988283;28;20042;-46
2021/10/10 07:30:29;;;;;;;14.43;13.65;;;;;;;;;;4985894;28;20057;-44
2021/10/10 07:32:56;;;;;;;13.95;13.57;;;;;;;;;;4988799;28;20038;-44
2021/10/10 07:35:22;;;;;;;14.05;13.45;;;;;;;;;;4986322;28;20038;-44
2021/10/10 07:37:49;;;;;;;16.05;15.20;;;;;;;;;;4988770;28;20067;-44
2021/10/10 07:40:17;;;;;;;13.30;12.77;;;;;;;;;;4988180;28;20093;-44
2021/10/10 07:42:47;;;;;;;16.38;15.60;;;;;;;;;;4988868;28;20458;-46
2021/10/10 07:45:18;;;;;;;14.85;14.13;;;;;;;;;;4989306;28;20515;-48
2021/10/10 07:47:51;;;;;;;14.95;13.82;;;;;;;;;;4975705;28;20130;-46
2021/10/10 07:50:20;;;;;;;12.02;11.38;;;;;;;;;;4989137;28;20077;-45
2021/10/10 07:52:47;;;;;;;11.90;11.00;;;;;;;;;;4988912;28;20261;-49
2021/10/10 07:55:14;;;;;;;13.68;12.73;;;;;;;;;;4990452;28;20030;-48
2021/10/10 07:57:41;;;;;;;13.13;12.63;;;;;;;;;;4990283;28;20047;-45
2021/10/10 08:00:09;;;;;;;15.25;14.18;;;;;;;;;;4990172;28;20113;-47
2021/10/10 08:02:49;;;;;;;13.88;13.23;;;;;;;;;;4988823;28;20077;-48
2021/10/10 08:05:16;;;;;;;13.60;13.20;;;;;;;;;;4990665;28;20070;-48
2021/10/10 08:07:43;;;;;;;13.80;13.50;;;;;;;;;;4991466;28;20074;-48
2021/10/10 08:10:10;;;;;;;10.27;9.43;;;;;;;;;;4989006;28;20088;-45
2021/10/10 08:12:36;;;;;;;6.50;6.10;;;;;;;;;;4989355;28;20081;-47
2021/10/10 08:15:03;;;;;;;6.85;6.25;;;;;;;;;;4987504;28;20125;-46
2021/10/10 08:17:30;;;;;;;6.95;6.45;;;;;;;;;;4988485;28;20062;-48
2021/10/10 08:19:56;;;;;;;4.47;3.92;;;;;;;;;;4987335;28;20085;-46
2021/10/10 08:22:24;;;;;;;6.63;6.13;;;;;;;;;;4987097;28;20050;-49
2021/10/10 08:24:50;;;;;;;11.82;8.48;;;;;;;;;;4979655;28;20934;-49
2021/10/10 08:27:17;;;;;;;11.93;10.75;;;;;;;;;;4987088;28;20057;-45
2021/10/10 08:29:44;;;;;;;9.07;8.57;;;;;;;;;;4977692;28;20043;-48
2021/10/10 08:32:11;;;;;;;11.63;10.82;;;;;;;;;;4986032;28;20109;-48
2021/10/10 08:34:37;;;;;;;13.82;12.45;;;;;;;;;;4989200;28;20039;-48
2021/10/10 08:37:04;;;;;;;12.05;11.52;;;;;;;;;;4987457;28;20149;-46
2021/10/10 08:39:31;;;;;;;12.52;11.68;;;;;;;;;;4987544;28;20096;-47
2021/10/10 08:41:59;;;;;;;15.48;14.65;;;;;;;;;;4988852;28;20043;-46
2021/10/10 08:44:33;;;;;;;13.23;12.23;;;;;;;;;;4985552;28;20077;-46
2021/10/10 08:47:03;;;;;;;7.85;7.45;;;;;;;;;;4975347;28;20504;-49
2021/10/10 08:49:36;;;;;;;8.65;8.25;;;;;;;;;;4989509;28;20045;-48
2021/10/10 08:52:03;;;;;;;16.40;15.30;;;;;;;;;;4989287;28;20498;-48
2021/10/10 08:54:48;;;;;;;14.82;14.35;;;;;;;;;;4982025;28;20047;-47
2021/10/10 08:57:14;;;;;;;15.88;14.95;;;;;;;;;;4988842;28;20030;-48
2021/10/10 08:59:43;;;;;;;15.32;14.60;;;;;;;;;;4989351;28;20096;-47
2021/10/10 09:02:19;;;;;;;13.25;12.35;;;;;;;;;;4988096;28;20506;-49
2021/10/10 09:04:46;;;;;;;15.57;14.48;;;;;;;;;;4986476;28;20039;-45
2021/10/10 09:07:13;;;;;;;13.60;12.68;;;;;;;;;;4983289;28;20042;-43
2021/10/10 09:09:41;;;;;;;11.48;10.95;;;;;;;;;;4989366;28;20081;-47
2021/10/10 09:12:09;;;;;;;13.63;12.32;;;;;;;;;;4976868;28;20093;-45
2021/10/10 09:14:48;;;;;;;10.93;10.60;;;;;;;;;;4981595;28;20097;-46
2021/10/10 09:17:17;;;;;;;13.25;12.25;;;;;;;;;;4984589;28;20419;-46
2021/10/10 09:19:51;;;;;;;9.77;9.27;;;;;;;;;;4983105;28;20164;-46
2021/10/10 09:22:18;;;;;;;9.25;8.55;;;;;;;;;;4989740;28;20041;-46
2021/10/10 09:24:45;;;;;;;8.30;7.28;;;;;;;;;;4986422;28;20046;-47
2021/10/10 09:27:13;;;;;;;7.00;6.40;;;;;;;;;;4995413;28;20038;-45
2021/10/10 09:29:41;;;;;;;6.28;5.80;;;;;;;;;;4988620;28;20513;-45
2021/10/10 09:32:08;;;;;;;6.65;5.80;;;;;;;;;;4990981;28;20486;-46
2021/10/10 09:34:36;;;;;;;3.70;3.15;;;;;;;;;;4991516;28;20045;-45
2021/10/10 09:37:09;;;;;;;6.68;5.03;;;;;;;;;;5011919;28;20069;-45
2021/10/10 09:39:39;;;;;;;4.53;4.28;;;;;;;;;;4991018;28;20073;-46
2021/10/10 09:42:29;;;;;;;9.18;8.55;;;;;;;;;;4990811;28;20097;-45
2021/10/10 09:45:03;;;;;;;11.95;11.25;;;;;;;;;;4994482;28;20054;-45
2021/10/10 09:47:51;;;;;;;5.32;5.05;;;;;;;;;;4993233;28;20053;-47
2021/10/10 09:50:18;;;;;;;4.45;4.05;;;;;;;;;;4993931;28;20440;-49
2021/10/10 09:52:45;;;;;;;6.35;3.92;;;;;;;;;;4999844;28;20034;-48
2021/10/10 09:55:12;;;;;;;5.28;4.05;;;;;;;;;;5001500;28;20046;-47
2021/10/10 09:57:48;;;;;;;6.32;4.15;;;;;;;;;;4990057;28;20077;-45
2021/10/10 10:00:19;;;;;;;6.03;5.72;;;;;;;;;;4987142;28;20034;-45
2021/10/10 10:02:50;;;;;;;6.32;5.93;;;;;;;;;;4991073;28;20041;-43
2021/10/10 10:05:26;;;;;;;5.55;5.00;;;;;;;;;;4988024;28;20046;-45
2021/10/10 10:07:54;;;;;;;6.93;4.18;;;;;;;;;;4989404;28;20042;-45
2021/10/10 10:10:22;;;;;;;3.13;2.78;;;;;;;;;;4991512;28;20049;-46
2021/10/10 10:12:50;;;;;;;4.20;3.80;;;;;;;;;;4989562;28;20893;-46
2021/10/10 10:15:18;;;;;;;5.75;3.67;;;;;;;;;;4981833;28;20051;-47
2021/10/10 10:17:45;;;;;;;3.47;3.22;;;;;;;;;;4987510;28;20045;-44
2021/10/10 10:20:14;;;;;;;3.75;3.22;;;;;;;;;;4985540;28;20070;-46
2021/10/10 10:22:41;;;;;;;6.93;5.50;;;;;;;;;;5001917;28;20600;-44
2021/10/10 10:25:08;;;;;;;8.55;8.13;;;;;;;;;;4991527;28;20069;-47
2021/10/10 10:27:35;;;;;;;8.82;8.15;;;;;;;;;;4982408;28;20074;-47
2021/10/10 10:30:03;;;;;;;9.23;8.80;;;;;;;;;;4987532;28;20118;-44
2021/10/10 10:32:31;;;;;;;9.82;9.48;;;;;;;;;;4992705;28;20041;-46
2021/10/10 10:35:04;;;;;;;9.30;8.77;;;;;;;;;;4990515;28;20078;-45
2021/10/10 10:37:40;;;;;;;7.97;7.82;;;;;;;;;;4990687;28;20035;-45
2021/10/10 10:40:27;;;;;;;11.63;10.45;;;;;;;;;;4987228;28;20041;-46
2021/10/10 10:42:54;;;;;;;12.77;11.77;;;;;;;;;;4989793;28;20073;-46
2021/10/10 10:45:22;;;;;;;11.70;10.82;;;;;;;;;;4990943;28;20384;-46
2021/10/10 10:47:51;;;;;;;12.30;11.55;;;;;;;;;;4989868;28;20034;-44
2021/10/10 10:50:22;;;;;;;13.55;12.35;;;;;;;;;;4990699;28;20798;-46
2021/10/10 10:52:58;;;;;;;6.97;6.47;;;;;;;;;;4991404;28;20116;-44
2021/10/10 10:55:30;;;;;;;5.88;5.57;;;;;;;;;;4990865;28;20077;-46
2021/10/10 10:57:56;;;;;;;6.72;3.47;;;;;;;;;;4991177;28;20054;-43
2021/10/10 11:00:27;;;;;;;3.58;3.30;;;;;;;;;;4990677;28;20046;-45
2021/10/10 11:02:54;;;;;;;6.47;3.97;;;;;;;;;;4990197;28;20082;-46
2021/10/10 11:05:36;;;;;;;4.43;3.47;;;;;;;;;;4986108;28;20501;-47
2021/10/10 11:08:21;;;;;;;5.88;3.47;;;;;;;;;;4991874;28;20174;-46
2021/10/10 11:11:03;;;;;;;6.85;3.03;;;;;;;;;;4987655;28;20037;-46
2021/10/10 11:13:39;;;;;;;3.55;1.80;;;;;;;;;;4977902;28;20039;-48
2021/10/10 11:16:07;;;;;;;2.35;2.25;;;;;;;;;;4985495;28;20043;-45
2021/10/10 11:18:36;;;;;;;3.90;2.95;;;;;;;;;;4987476;28;20045;-46
2021/10/10 11:21:05;;;;;;;7.10;6.60;;;;;;;;;;4986382;28;20038;-47
2021/10/10 11:23:33;;;;;;;9.05;7.03;;;;;;;;;;4983120;28;20053;-46
2021/10/10 11:26:04;;;;;;;7.22;6.47;;;;;;;;;;4986541;28;20138;-44
2021/10/10 11:28:35;;;;;;;3.50;3.30;;;;;;;;;;4989412;28;20034;-45
2021/10/10 11:31:13;;;;;;;5.35;3.97;;;;;;;;;;4989473;28;20077;-46
2021/10/10 11:33:41;;;;;;;8.02;3.80;;;;;;;;;;4981214;28;20685;-47
2021/10/10 11:36:08;;;;;;;3.53;3.33;;;;;;;;;;4982594;28;20054;-48
2021/10/10 11:38:54;;;;;;;6.00;5.80;;;;;;;;;;4978387;28;20097;-48
2021/10/10 11:41:26;;;;;;;6.57;4.18;;;;;;;;;;4989612;28;20079;-44
2021/10/10 11:43:53;;;;;;;4.05;3.28;;;;;;;;;;4990169;28;20065;-46
2021/10/10 11:46:20;;;;;;;3.22;3.13;;;;;;;;;;4989850;28;20130;-44
2021/10/10 11:48:53;;;;;;;3.17;2.78;;;;;;;;;;4989216;28;20074;-48
2021/10/10 11:51:27;;;;;;;3.30;3.08;;;;;;;;;;4976252;28;20098;-48
2021/10/10 11:53:54;;;;;;;2.55;2.13;;;;;;;;;;4988239;28;20105;-49
2021/10/10 11:56:20;;;;;;;5.75;5.57;;;;;;;;;;4988628;28;20066;-47
2021/10/10 11:58:47;;;;;;;3.90;3.58;;;;;;;;;;4978082;28;20039;-47
2021/10/10 12:01:14;;;;;;;3.20;2.95;;;;;;;;;;4984864;28;20053;-46
2021/10/10 12:03:45;;;;;;;3.92;3.10;;;;;;;;;;4990237;28;20052;-46
2021/10/10 12:06:19;;;;;;;2.20;2.10;;;;;;;;;;4990174;28;20066;-45
2021/10/10 12:08:46;;;;;;;2.08;1.98;;;;;;;;;;4987837;28;20487;-47
2021/10/10 12:11:13;;;;;;;1.65;1.55;;;;;;;;;;4989485;28;20125;-48
2021/10/10 12:13:53;;;;;;;2.90;1.85;;;;;;;;;;4988643;28;20047;-47
2021/10/10 12:16:20;;;;;;;2.05;1.95;;;;;;;;;;4983515;28;20426;-45
2021/10/10 12:18:47;;;;;;;2.60;2.47;;;;;;;;;;4989046;28;20656;-46
2021/10/10 12:21:23;;;;;;;4.18;3.85;;;;;;;;;;4989176;28;20073;-46
2021/10/10 12:24:10;;;;;;;4.88;4.78;;;;;;;;;;4988679;28;20042;-46
2021/10/10 12:26:47;;;;;;;8.10;3.97;;;;;;;;;;4987579;28;20050;-48
2021/10/10 12:29:32;;;;;;;3.03;2.92;;;;;;;;;;4989442;28;20088;-47
2021/10/10 12:32:17;;;;;;;4.15;3.75;;;;;;;;;;4980296;28;20121;-47
2021/10/10 12:34:44;;;;;;;2.45;2.35;;;;;;;;;;4983894;28;20053;-44
2021/10/10 12:37:20;;;;;;;2.40;2.28;;;;;;;;;;4984705;28;21607;-47
2021/10/10 12:39:47;;;;;;;4.40;4.00;;;;;;;;;;4990030;28;20054;-44
2021/10/10 12:42:17;;;;;;;3.03;2.72;;;;;;;;;;4982226;28;20054;-47
2021/10/10 12:45:03;;;;;;;2.10;1.75;;;;;;;;;;4979183;28;20443;-46
2021/10/10 12:47:30;;;;;;;2.72;2.63;;;;;;;;;;4986924;28;20043;-46
2021/10/10 12:49:57;;;;;;;2.92;2.05;;;;;;;;;;4988784;28;20065;-44
2021/10/10 12:52:35;;;;;;;2.10;2.03;;;;;;;;;;5000127;28;20070;-49
2021/10/10 12:55:02;;;;;;;2.53;2.35;;;;;;;;;;4986555;28;20046;-48
2021/10/10 12:57:29;;;;;;;5.63;4.32;;;;;;;;;;4996713;28;20081;-49
2021/10/10 13:00:03;;;;;;;5.57;5.28;;;;;;;;;;4986638;28;20065;-48
2021/10/10 13:02:30;;;;;;;7.25;5.45;;;;;;;;;;4989324;28;20501;-46
2021/10/10 13:04:56;;;;;;;8.70;8.30;;;;;;;;;;4988613;28;20050;-49
2021/10/10 13:07:23;;;;;;;5.78;5.50;;;;;;;;;;4992570;28;20394;-48
2021/10/10 13:09:50;;;;;;;5.30;4.88;;;;;;;;;;4993905;28;20054;-47
2021/10/10 13:12:17;;;;;;;5.57;2.72;;;;;;;;;;4990538;28;20076;-45
2021/10/10 13:14:43;;;;;;;3.35;3.15;;;;;;;;;;4992253;28;20451;-45
2021/10/10 13:17:11;;;;;;;4.40;3.08;;;;;;;;;;4992404;28;20047;-47
2021/10/10 13:19:41;;;;;;;4.93;4.05;;;;;;;;;;4992727;28;20085;-47
2021/10/10 13:22:08;;;;;;;4.35;4.15;;;;;;;;;;4993813;28;20066;-45
2021/10/10 13:24:35;;;;;;;3.65;3.55;;;;;;;;;;4990923;28;20050;-47
2021/10/10 13:27:01;;;;;;;4.15;3.95;;;;;;;;;;4977858;28;20444;-48
2021/10/10 13:29:28;;;;;;;4.88;4.78;;;;;;;;;;4991560;28;20078;-47
2021/10/10 13:31:55;;;;;;;7.40;6.88;;;;;;;;;;4993809;28;20038;-45
2021/10/10 13:34:23;;;;;;;12.73;11.68;;;;;;;;;;4993710;28;20070;-47
2021/10/10 13:36:51;;;;;;;5.53;5.32;;;;;;;;;;4990263;28;20038;-47
2021/10/10 13:39:18;;;;;;;5.05;4.78;;;;;;;;;;4993388;28;20046;-47
2021/10/10 13:41:45;;;;;;;3.63;3.53;;;;;;;;;;4987332;28;20050;-47
2021/10/10 13:44:12;;;;;;;4.75;4.60;;;;;;;;;;4978282;28;20092;-46
2021/10/10 13:46:38;;;;;;;6.22;6.05;;;;;;;;;;4993027;28;20046;-49
2021/10/10 13:49:06;;;;;;;6.80;6.55;;;;;;;;;;4990111;28;20487;-49
2021/10/10 13:51:32;;;;;;;8.40;7.93;;;;;;;;;;4986430;28;20149;-48
2021/10/10 13:53:59;;;;;;;5.88;5.68;;;;;;;;;;4990802;28;20038;-44
2021/10/10 13:56:26;;;;;;;5.15;4.72;;;;;;;;;;4991938;28;20483;-48
2021/10/10 13:58:53;;;;;;;5.72;5.32;;;;;;;;;;4991203;28;20130;-47
2021/10/10 14:01:19;;;;;;;5.82;5.72;;;;;;;;;;4991518;28;20137;-45
2021/10/10 14:03:48;;;;;;;5.75;5.45;;;;;;;;;;4989280;28;20031;-46
2021/10/10 14:06:14;;;;;;;2.38;2.05;;;;;;;;;;4985911;28;20038;-44
2021/10/10 14:08:41;;;;;;;7.28;7.18;;;;;;;;;;4992822;28;20430;-46
2021/10/10 14:11:08;;;;;;;7.28;7.05;;;;;;;;;;4991995;28;20041;-45
2021/10/10 14:13:35;;;;;;;7.32;6.70;;;;;;;;;;4990556;28;20547;-49
2021/10/10 14:16:02;;;;;;;6.18;6.00;;;;;;;;;;4992871;28;20039;-47
2021/10/10 14:18:29;;;;;;;4.70;4.60;;;;;;;;;;4982009;28;20541;-44
2021/10/10 14:20:55;;;;;;;6.40;6.18;;;;;;;;;;4992687;28;20113;-46
2021/10/10 14:23:22;;;;;;;4.95;4.85;;;;;;;;;;4990404;28;20069;-45
2021/10/10 14:25:50;;;;;;;6.10;6.00;;;;;;;;;;4990642;28;20085;-46
2021/10/10 14:28:16;;;;;;;6.82;6.50;;;;;;;;;;4991643;28;20038;-45
2021/10/10 14:30:44;;;;;;;5.80;5.80;;;;;;;;;;4986895;28;20145;-45
2021/10/10 14:33:16;;;;;;;6.03;5.82;;;;;;;;;;4988507;28;20041;-49
2021/10/10 14:35:43;;;;;;;5.97;5.78;;;;;;;;;;4989845;28;20105;-45
2021/10/10 14:38:09;;;;;;;8.38;7.82;;;;;;;;;;4992098;28;20063;-48
2021/10/10 14:40:42;;;;;;;8.73;8.52;;;;;;;;;;4992312;28;20537;-44